Time;durP1;ratioP1;P1;durP2;ratioP2;P2;SDS_P1;SDS_P2;PMS_P1;PMS_P2;Temp;Humidity;BMP_temperature;BMP_pressure;BME280_temperature;BME280_humidity;BME280_pressure;Samples;Min_cycle;Max_cycle;Signal;HPM_P1;HPM_P2
2022/05/03 00:01:39;;;;;;;10.35;5.82;;;8.20;99.90;;;;;;5037576;28;20060;-77
2022/05/03 00:04:22;;;;;;;13.32;5.20;;;8.10;99.90;;;;;;5055569;28;20087;-75
2022/05/03 00:06:56;;;;;;;9.90;6.00;;;8.10;99.90;;;;;;5063818;28;20139;-75
2022/05/03 00:09:49;;;;;;;8.48;5.90;;;8.10;99.90;;;;;;5046797;28;20453;-74
2022/05/03 00:12:23;;;;;;;9.57;5.72;;;8.10;99.90;;;;;;5053367;28;20095;-75
2022/05/03 00:14:55;;;;;;;8.55;5.53;;;8.10;99.90;;;;;;5050847;28;20047;-75
2022/05/03 00:17:22;;;;;;;7.63;5.43;;;8.10;99.90;;;;;;5035244;28;20056;-77
2022/05/03 00:19:48;;;;;;;8.70;5.22;;;8.10;99.90;;;;;;5037903;28;20451;-75
2022/05/03 00:22:20;;;;;;;8.10;5.35;;;8.10;99.90;;;;;;5049030;28;20060;-78
2022/05/03 00:24:46;;;;;;;11.05;5.13;;;8.10;99.90;;;;;;5052438;28;20041;-75
2022/05/03 00:27:14;;;;;;;7.93;5.95;;;8.10;99.90;;;;;;5048428;28;20408;-75
2022/05/03 00:29:40;;;;;;;8.00;5.35;;;8.10;99.90;;;;;;5031907;28;20045;-75
2022/05/03 00:32:06;;;;;;;7.47;5.45;;;8.10;99.90;;;;;;5034151;28;20059;-76
2022/05/03 00:34:33;;;;;;;7.50;4.82;;;8.00;99.90;;;;;;5037891;28;20489;-75
2022/05/03 00:36:59;;;;;;;8.63;4.85;;;8.10;99.90;;;;;;5051602;28;20412;-75
2022/05/03 00:39:25;;;;;;;8.55;5.82;;;8.00;99.90;;;;;;5060116;28;20121;-75
2022/05/03 00:42:18;;;;;;;7.18;5.00;;;8.00;99.90;;;;;;5051899;28;20631;-75
2022/05/03 00:45:22;;;;;;;11.45;5.63;;;8.00;99.90;;;;;;5071269;28;20055;-74
2022/05/03 00:47:53;;;;;;;8.05;5.57;;;8.00;99.90;;;;;;5051830;28;20076;-75
2022/05/03 00:50:34;;;;;;;7.07;5.00;;;8.00;99.90;;;;;;5043391;28;20056;-74
2022/05/03 00:53:22;;;;;;;7.15;5.30;;;8.00;99.90;;;;;;5049699;28;20060;-75
2022/05/03 00:56:02;;;;;;;8.57;4.97;;;7.90;99.90;;;;;;5037388;28;20048;-74
2022/05/03 00:58:52;;;;;;;7.30;5.55;;;7.90;99.90;;;;;;5050243;28;20123;-74
2022/05/03 01:01:45;;;;;;;8.93;5.63;;;7.90;99.90;;;;;;5053875;28;20230;-75
2022/05/03 01:04:30;;;;;;;8.07;5.68;;;7.90;99.90;;;;;;5030588;28;20129;-75
2022/05/03 01:07:13;;;;;;;8.10;5.50;;;7.90;99.90;;;;;;5062018;28;20128;-75
2022/05/03 01:09:43;;;;;;;7.68;5.43;;;7.90;99.90;;;;;;5031640;28;20053;-74
2022/05/03 01:12:23;;;;;;;8.52;5.88;;;7.90;99.90;;;;;;5050548;28;20524;-77
2022/05/03 01:15:17;;;;;;;7.50;5.80;;;7.90;99.90;;;;;;5043212;28;20046;-76
2022/05/03 01:17:45;;;;;;;8.10;5.15;;;7.90;99.90;;;;;;5047435;28;20235;-76
2022/05/03 01:20:15;;;;;;;9.55;5.63;;;7.90;99.90;;;;;;5057462;28;20048;-76
2022/05/03 01:22:50;;;;;;;8.15;6.53;;;7.80;99.90;;;;;;5055791;28;20049;-76
2022/05/03 01:25:44;;;;;;;7.18;5.22;;;7.80;99.90;;;;;;5033586;28;20480;-76
2022/05/03 01:28:28;;;;;;;8.02;5.40;;;7.80;99.90;;;;;;5048140;28;20493;-76
2022/05/03 01:31:04;;;;;;;6.57;5.05;;;7.80;99.90;;;;;;5037259;28;20439;-76
2022/05/03 01:33:36;;;;;;;8.75;5.93;;;7.80;99.90;;;;;;5033550;28;20052;-76
2022/05/03 01:36:04;;;;;;;8.02;6.18;;;7.80;99.90;;;;;;5055851;28;20461;-76
2022/05/03 01:38:33;;;;;;;10.88;6.25;;;7.80;99.90;;;;;;5052745;28;20040;-75
2022/05/03 01:41:37;;;;;;;9.65;6.70;;;7.80;99.90;;;;;;5044609;28;20045;-75
2022/05/03 01:44:51;;;;;;;13.00;6.18;;;7.80;99.90;;;;;;5010865;28;20067;-76
2022/05/03 01:47:22;;;;;;;9.70;7.10;;;7.70;99.90;;;;;;4989998;28;20046;-76
2022/05/03 01:50:20;;;;;;;;;;;7.70;99.90;;;;;;5043700;28;20049;-76
2022/05/03 01:53:10;;;;;;;8.32;6.05;;;7.60;99.90;;;;;;5030430;28;19940;-76
2022/05/03 01:55:45;;;;;;;9.38;6.30;;;7.60;99.90;;;;;;5053333;28;20115;-76
2022/05/03 01:58:17;;;;;;;8.40;6.35;;;7.60;99.90;;;;;;5052612;28;20056;-76
2022/05/03 02:01:02;;;;;;;9.23;6.30;;;7.60;99.90;;;;;;5031985;28;20053;-76
2022/05/03 02:03:41;;;;;;;12.65;6.47;;;7.60;99.90;;;;;;5063501;28;20056;-75
2022/05/03 02:06:10;;;;;;;8.93;6.28;;;7.50;99.90;;;;;;5060354;28;20053;-76
2022/05/03 02:08:52;;;;;;;9.52;6.25;;;7.60;99.90;;;;;;5063953;28;20347;-76
2022/05/03 02:11:20;;;;;;;;;;;7.60;99.90;;;;;;5052649;28;20430;-75
2022/05/03 02:16:53;;;;;;;8.40;6.60;;;7.50;99.90;;;;;;5067762;28;20144;-76
2022/05/03 02:19:59;;;;;;;7.85;6.22;;;7.50;99.90;;;;;;5043879;28;20053;-76
2022/05/03 02:22:30;;;;;;;8.93;6.45;;;7.50;99.90;;;;;;5059440;28;20078;-76
2022/05/03 02:25:26;;;;;;;7.72;5.70;;;7.50;99.90;;;;;;5059615;28;20044;-75
2022/05/03 02:28:23;;;;;;;9.48;6.30;;;7.50;99.90;;;;;;5032544;28;20055;-76
2022/05/03 02:30:51;;;;;;;10.00;7.10;;;7.50;99.90;;;;;;5056977;28;20112;-75
2022/05/03 02:33:30;;;;;;;13.05;5.97;;;7.50;99.90;;;;;;5051208;28;20044;-75
2022/05/03 02:35:58;;;;;;;10.05;8.07;;;7.50;99.90;;;;;;5044030;28;20055;-76
2022/05/03 02:38:39;;;;;;;8.53;6.80;;;7.50;99.90;;;;;;5044047;28;20174;-77
2022/05/03 02:41:10;;;;;;;8.90;7.13;;;7.60;99.90;;;;;;5050862;28;20490;-76
2022/05/03 02:43:38;;;;;;;10.77;7.57;;;7.60;99.90;;;;;;5043042;28;20337;-76
2022/05/03 02:46:23;;;;;;;13.05;8.60;;;7.60;99.90;;;;;;5033331;28;20376;-76
2022/05/03 02:49:18;;;;;;;8.80;7.15;;;7.80;99.90;;;;;;5050734;28;20040;-76
2022/05/03 02:51:56;;;;;;;12.77;9.32;;;7.70;99.90;;;;;;5033303;28;20052;-76
2022/05/03 02:54:50;;;;;;;18.45;9.82;;;7.80;99.90;;;;;;5066089;28;20052;-76
2022/05/03 02:57:36;;;;;;;13.43;9.35;;;7.80;99.90;;;;;;5035467;28;20048;-76
2022/05/03 03:03:07;;;;;;;11.02;8.55;;;7.90;99.90;;;;;;5042023;28;20125;-76
2022/05/03 03:05:42;;;;;;;13.63;9.70;;;7.90;99.90;;;;;;5065412;28;20052;-76
2022/05/03 03:08:11;;;;;;;14.90;8.57;;;8.00;99.90;;;;;;5046093;28;20045;-76
2022/05/03 03:10:51;;;;;;;14.35;9.70;;;8.10;99.90;;;;;;5064877;28;20484;-76
2022/05/03 03:13:49;;;;;;;17.17;9.93;;;8.10;99.90;;;;;;5035371;28;20094;-76
2022/05/03 03:16:31;;;;;;;16.67;11.55;;;8.20;99.90;;;;;;5022450;28;20056;-76
2022/05/03 03:19:19;;;;;;;13.85;10.65;;;8.20;99.90;;;;;;5058745;28;20414;-76
2022/05/03 03:21:48;;;;;;;14.63;10.40;;;8.30;99.90;;;;;;5056505;28;20044;-76
2022/05/03 03:24:16;;;;;;;18.45;12.73;;;8.30;99.90;;;;;;5050215;28;20055;-76
2022/05/03 03:26:45;;;;;;;19.60;13.32;;;8.30;99.90;;;;;;5058114;28;20048;-76
2022/05/03 03:29:13;;;;;;;13.82;10.82;;;8.40;99.90;;;;;;5055079;28;20056;-76
2022/05/03 03:31:43;;;;;;;20.00;12.93;;;8.40;99.90;;;;;;5057692;28;20056;-76
2022/05/03 03:34:11;;;;;;;18.17;13.88;;;8.40;99.90;;;;;;5065014;28;20032;-75
2022/05/03 03:36:39;;;;;;;22.45;14.70;;;8.90;99.90;;;;;;5068428;28;20049;-76
2022/05/03 03:39:08;;;;;;;18.33;13.40;;;8.60;99.90;;;;;;5049705;28;20079;-76
2022/05/03 03:41:34;;;;;;;20.75;14.55;;;8.60;99.90;;;;;;5040141;28;20123;-76
2022/05/03 03:44:03;;;;;;;19.15;14.55;;;8.90;99.90;;;;;;5061749;28;20112;-76
2022/05/03 03:46:30;;;;;;;18.15;13.50;;;8.70;99.90;;;;;;5062420;28;20037;-77
2022/05/03 03:48:55;;;;;;;21.73;14.45;;;8.70;99.90;;;;;;5052369;28;20049;-75
2022/05/03 03:51:21;;;;;;;21.65;15.30;;;8.80;99.90;;;;;;5064560;28;20063;-76
2022/05/03 03:53:47;;;;;;;21.08;15.10;;;8.80;99.90;;;;;;5057947;28;20115;-76
2022/05/03 03:56:13;;;;;;;21.88;15.07;;;8.90;99.90;;;;;;5039438;28;20552;-75
2022/05/03 03:58:40;;;;;;;20.05;14.57;;;8.90;99.90;;;;;;5065589;28;20052;-74
2022/05/03 04:01:05;;;;;;;22.08;14.88;;;9.00;99.90;;;;;;5064254;28;20459;-75
2022/05/03 04:03:33;;;;;;;23.15;15.18;;;9.00;99.90;;;;;;5039300;28;20132;-75
2022/05/03 04:05:59;;;;;;;17.95;13.60;;;9.00;99.90;;;;;;5032431;28;20095;-74
2022/05/03 04:08:25;;;;;;;23.52;16.45;;;9.10;99.90;;;;;;5037989;28;20141;-75
2022/05/03 04:10:53;;;;;;;22.58;15.85;;;9.10;99.90;;;;;;5038923;28;20440;-74
2022/05/03 04:13:19;;;;;;;23.50;15.93;;;9.10;99.90;;;;;;5030267;28;20052;-75
2022/05/03 04:15:45;;;;;;;23.17;16.00;;;9.10;99.90;;;;;;5032883;28;20049;-75
2022/05/03 04:18:10;;;;;;;20.23;15.63;;;9.10;99.90;;;;;;5037054;28;20038;-75
2022/05/03 04:20:36;;;;;;;26.30;16.83;;;9.20;99.90;;;;;;5038744;28;20033;-75
2022/05/03 04:23:02;;;;;;;24.42;17.00;;;9.20;99.90;;;;;;5026224;28;20055;-74
2022/05/03 04:25:31;;;;;;;24.30;17.23;;;9.20;99.90;;;;;;5026869;28;20053;-74
2022/05/03 04:27:57;;;;;;;23.85;17.50;;;9.20;99.90;;;;;;5033483;28;20042;-75
2022/05/03 04:30:23;;;;;;;26.58;18.63;;;9.20;99.90;;;;;;5032469;28;20045;-74
2022/05/03 04:32:48;;;;;;;26.50;18.55;;;9.20;99.90;;;;;;5042851;28;20042;-75
2022/05/03 04:35:14;;;;;;;27.08;19.45;;;9.30;99.90;;;;;;5028410;28;20080;-76
2022/05/03 04:37:39;;;;;;;26.42;18.08;;;9.30;99.90;;;;;;5040932;28;20127;-76
2022/05/03 04:40:06;;;;;;;25.48;17.80;;;9.30;99.90;;;;;;5039471;28;20060;-76
2022/05/03 04:42:31;;;;;;;22.77;17.15;;;9.30;99.90;;;;;;5029539;28;20040;-76
2022/05/03 04:44:57;;;;;;;26.88;17.13;;;9.30;99.90;;;;;;5035220;28;20401;-76
2022/05/03 04:47:23;;;;;;;23.27;16.95;;;9.40;99.90;;;;;;5043760;28;20037;-76
2022/05/03 04:49:48;;;;;;;28.27;18.48;;;9.40;99.90;;;;;;5028224;28;20041;-76
2022/05/03 04:52:14;;;;;;;24.40;18.70;;;9.40;99.90;;;;;;5043126;28;20824;-76
2022/05/03 04:54:40;;;;;;;24.73;16.85;;;9.40;99.90;;;;;;5046514;28;20048;-77
2022/05/03 04:57:06;;;;;;;22.77;16.92;;;9.50;99.90;;;;;;5042409;28;20049;-75
2022/05/03 04:59:37;;;;;;;26.55;18.20;;;9.50;99.90;;;;;;5046917;28;20053;-76
2022/05/03 05:02:03;;;;;;;27.77;18.60;;;9.50;99.90;;;;;;5051416;28;20484;-76
2022/05/03 05:04:29;;;;;;;24.70;17.80;;;9.60;99.90;;;;;;5053809;28;20072;-75
2022/05/03 05:06:54;;;;;;;28.33;19.42;;;9.60;99.90;;;;;;5066984;28;20105;-76
2022/05/03 05:09:20;;;;;;;30.15;20.25;;;9.60;99.90;;;;;;5056584;28;20028;-76
2022/05/03 05:11:49;;;;;;;26.88;17.90;;;9.60;99.90;;;;;;5037081;28;20041;-77
2022/05/03 05:14:16;;;;;;;28.42;18.67;;;9.60;99.90;;;;;;5061505;28;20044;-77
2022/05/03 05:16:41;;;;;;;28.70;19.40;;;9.60;99.90;;;;;;5034964;28;20447;-74
2022/05/03 05:19:07;;;;;;;26.50;18.83;;;9.70;99.90;;;;;;5053578;28;20054;-76
2022/05/03 05:21:33;;;;;;;31.50;20.13;;;9.70;99.90;;;;;;5049084;28;20040;-75
2022/05/03 05:24:01;;;;;;;32.78;21.80;;;9.70;99.90;;;;;;5073981;28;20468;-75
2022/05/03 05:26:27;;;;;;;29.42;20.65;;;9.70;99.90;;;;;;5070672;28;20719;-76
2022/05/03 05:28:53;;;;;;;29.80;19.70;;;9.70;99.90;;;;;;5038921;28;20029;-76
2022/05/03 05:31:19;;;;;;;38.83;23.63;;;9.80;99.90;;;;;;5056513;28;20051;-75
2022/05/03 05:33:44;;;;;;;36.83;24.95;;;9.80;99.90;;;;;;5069912;28;20036;-76
2022/05/03 05:36:10;;;;;;;33.88;21.20;;;9.80;99.90;;;;;;5075308;28;20041;-76
2022/05/03 05:38:38;;;;;;;37.92;22.65;;;9.80;99.90;;;;;;5047801;28;20061;-76
2022/05/03 05:41:22;;;;;;;33.70;21.27;;;9.80;99.90;;;;;;5046559;28;20040;-77
2022/05/03 05:43:48;;;;;;;40.83;26.13;;;9.80;99.90;;;;;;5068107;28;20123;-76
2022/05/03 05:46:14;;;;;;;34.88;22.80;;;9.80;99.90;;;;;;5077259;28;20146;-77
2022/05/03 05:48:40;;;;;;;39.70;24.33;;;9.80;99.90;;;;;;5052339;28;20044;-76
2022/05/03 05:51:08;;;;;;;32.75;21.83;;;9.80;99.90;;;;;;5072927;28;20350;-77
2022/05/03 05:53:34;;;;;;;34.50;23.40;;;9.80;99.90;;;;;;5068272;28;20490;-76
2022/05/03 05:56:03;;;;;;;38.55;22.05;;;9.80;99.90;;;;;;5063813;28;20052;-77
2022/05/03 05:58:30;;;;;;;31.40;19.27;;;9.80;99.90;;;;;;5068570;28;20349;-76
2022/05/03 06:00:56;;;;;;;29.33;19.05;;;9.90;99.90;;;;;;5042963;28;20616;-75
2022/05/03 06:03:22;;;;;;;30.15;17.92;;;9.90;99.90;;;;;;5068470;28;20052;-77
2022/05/03 06:05:49;;;;;;;33.42;17.92;;;9.90;99.90;;;;;;5068250;28;20056;-76
2022/05/03 06:08:14;;;;;;;22.27;15.65;;;9.90;99.90;;;;;;5074179;28;20041;-75
2022/05/03 06:10:40;;;;;;;24.52;15.18;;;10.00;99.90;;;;;;5077935;28;20427;-75
2022/05/03 06:13:06;;;;;;;28.67;15.30;;;10.00;99.90;;;;;;5062050;28;20039;-75
2022/05/03 06:15:31;;;;;;;24.35;11.68;;;9.90;99.90;;;;;;5046435;28;20116;-76
2022/05/03 06:17:57;;;;;;;22.10;11.05;;;10.00;99.90;;;;;;5069517;28;20043;-76
2022/05/03 06:20:23;;;;;;;17.85;8.48;;;10.00;99.90;;;;;;5048958;28;20099;-76
2022/05/03 06:22:49;;;;;;;23.48;7.40;;;10.00;99.90;;;;;;5056172;28;20171;-76
2022/05/03 06:25:15;;;;;;;17.98;6.53;;;10.00;99.90;;;;;;5079628;28;20045;-74
2022/05/03 06:27:40;;;;;;;17.73;5.15;;;10.00;99.90;;;;;;5067364;28;20110;-75
2022/05/03 06:30:10;;;;;;;20.42;5.43;;;10.00;99.90;;;;;;5073311;28;20445;-76
2022/05/03 06:32:37;;;;;;;18.45;4.82;;;10.00;99.90;;;;;;5054606;28;20036;-75
2022/05/03 06:35:03;;;;;;;15.43;4.03;;;10.10;99.90;;;;;;5074273;28;20056;-75
2022/05/03 06:37:28;;;;;;;14.20;3.83;;;10.10;99.90;;;;;;5074407;28;20048;-76
2022/05/03 06:39:54;;;;;;;15.55;4.50;;;10.00;99.90;;;;;;5048228;28;20046;-76
2022/05/03 06:42:20;;;;;;;14.60;4.85;;;10.00;99.90;;;;;;5070375;28;20048;-76
2022/05/03 06:44:47;;;;;;;19.23;4.18;;;10.00;99.90;;;;;;5078170;28;20037;-74
2022/05/03 06:47:13;;;;;;;14.27;3.97;;;10.00;99.90;;;;;;5047835;28;20515;-74
2022/05/03 06:49:38;;;;;;;18.00;4.25;;;10.00;99.90;;;;;;5067344;28;20128;-73
2022/05/03 06:52:04;;;;;;;28.13;4.53;;;10.00;99.90;;;;;;5070798;28;20148;-74
2022/05/03 06:54:29;;;;;;;15.55;3.83;;;10.00;99.90;;;;;;5054868;28;20116;-74
2022/05/03 06:56:55;;;;;;;19.27;5.00;;;10.00;99.90;;;;;;5063522;28;20467;-75
2022/05/03 06:59:21;;;;;;;14.32;4.60;;;10.00;99.90;;;;;;5069383;28;20048;-74
2022/05/03 07:01:46;;;;;;;14.35;4.20;;;10.00;99.90;;;;;;5054425;28;20666;-74
2022/05/03 07:04:12;;;;;;;16.10;4.18;;;10.10;99.90;;;;;;5048975;28;20044;-73
2022/05/03 07:06:37;;;;;;;18.83;5.13;;;10.10;99.90;;;;;;5052165;28;20422;-74
2022/05/03 07:09:03;;;;;;;14.98;4.35;;;10.10;99.90;;;;;;5047803;28;20093;-74
2022/05/03 07:11:29;;;;;;;14.77;5.38;;;10.10;99.90;;;;;;5066738;28;20040;-74
2022/05/03 07:13:54;;;;;;;15.55;5.10;;;10.10;99.90;;;;;;5075999;28;20555;-73
2022/05/03 07:16:20;;;;;;;18.40;5.28;;;10.10;99.90;;;;;;5074464;28;20045;-74
2022/05/03 07:24:17;;;;;;;23.48;4.93;;;10.10;99.90;;;;;;5056187;28;20052;-73
2022/05/03 07:26:43;;;;;;;22.17;5.53;;;10.20;99.90;;;;;;5070964;28;20064;-74
2022/05/03 07:29:09;;;;;;;22.15;5.97;;;10.20;99.90;;;;;;5071469;28;20040;-73
2022/05/03 07:31:34;;;;;;;25.27;5.15;;;10.20;99.90;;;;;;5070357;28;20793;-74
2022/05/03 07:34:00;;;;;;;26.20;5.68;;;10.30;99.90;;;;;;5042199;28;20044;-74
2022/05/03 07:36:28;;;;;;;25.05;4.65;;;10.30;99.90;;;;;;5071909;28;20041;-73
2022/05/03 07:38:54;;;;;;;19.20;4.68;;;10.40;99.90;;;;;;5068930;28;20040;-74
2022/05/03 07:41:20;;;;;;;19.42;4.20;;;10.40;99.90;;;;;;5051890;28;20449;-74
2022/05/03 07:43:45;;;;;;;12.98;3.70;;;10.40;99.90;;;;;;5063979;28;20041;-74
2022/05/03 07:46:11;;;;;;;20.88;4.20;;;10.40;99.90;;;;;;5042736;28;20132;-75
2022/05/03 07:48:36;;;;;;;12.98;4.18;;;10.20;99.90;;;;;;5055119;28;20368;-75
2022/05/03 07:51:03;;;;;;;15.45;3.28;;;10.50;99.90;;;;;;5044157;28;20048;-75
2022/05/03 07:53:28;;;;;;;16.77;4.00;;;10.50;99.90;;;;;;5071377;28;20151;-74
2022/05/03 07:55:54;;;;;;;20.23;4.07;;;10.50;99.90;;;;;;5070683;28;20112;-74
2022/05/03 07:58:23;;;;;;;15.82;3.92;;;10.50;99.90;;;;;;5064023;28;20119;-75
2022/05/03 08:00:49;;;;;;;16.05;3.97;;;10.60;99.90;;;;;;5072086;28;20204;-73
2022/05/03 08:03:16;;;;;;;22.25;3.95;;;10.60;99.90;;;;;;5052490;28;20048;-74
2022/05/03 08:05:43;;;;;;;16.95;4.55;;;10.60;99.90;;;;;;5066228;28;20097;-74
2022/05/03 08:08:09;;;;;;;20.17;4.30;;;10.60;99.90;;;;;;5066761;28;20058;-75
2022/05/03 08:10:34;;;;;;;20.98;4.93;;;10.70;99.90;;;;;;5045944;28;20167;-74
2022/05/03 08:13:00;;;;;;;22.00;4.10;;;10.80;99.90;;;;;;5065181;28;20043;-74
2022/05/03 08:15:25;;;;;;;17.38;4.00;;;10.80;99.90;;;;;;5073424;28;20129;-75
2022/05/03 08:17:51;;;;;;;15.18;4.60;;;10.90;99.90;;;;;;5050959;28;20036;-74
2022/05/03 08:20:20;;;;;;;16.92;4.22;;;10.90;99.90;;;;;;5066590;28;20384;-75
2022/05/03 08:22:45;;;;;;;24.75;3.60;;;10.90;99.90;;;;;;5073460;28;20068;-77
2022/05/03 08:25:11;;;;;;;20.55;3.65;;;10.90;99.90;;;;;;5071980;28;20070;-76
2022/05/03 08:27:38;;;;;;;18.98;3.92;;;11.00;99.90;;;;;;5054512;28;20036;-77
2022/05/03 08:30:10;;;;;;;17.33;3.55;;;11.00;99.90;;;;;;5066282;28;20040;-76
2022/05/03 08:32:36;;;;;;;20.77;3.63;;;11.00;99.90;;;;;;5048287;28;20928;-75
2022/05/03 08:35:02;;;;;;;21.73;3.17;;;11.00;99.90;;;;;;5062506;28;20047;-76
2022/05/03 08:43:06;;;;;;;10.80;2.60;;;11.10;99.90;;;;;;5054778;28;20055;-75
2022/05/03 08:45:32;;;;;;;16.17;2.83;;;11.10;99.90;;;;;;5054074;28;20052;-77
2022/05/03 08:48:00;;;;;;;19.02;3.22;;;11.10;99.90;;;;;;5043909;28;20033;-76
2022/05/03 08:50:26;;;;;;;15.50;3.42;;;11.10;99.90;;;;;;5054427;28;20133;-75
2022/05/03 08:53:03;;;;;;;17.15;4.03;;;11.10;99.90;;;;;;5051134;28;20040;-75
2022/05/03 08:55:29;;;;;;;14.38;3.30;;;11.20;99.90;;;;;;5046845;28;20049;-75
2022/05/03 08:57:55;;;;;;;22.55;4.13;;;11.20;99.90;;;;;;5067375;28;20188;-79
2022/05/03 09:00:21;;;;;;;15.32;3.03;;;11.30;99.90;;;;;;5067008;28;20593;-78
2022/05/03 09:02:55;;;;;;;22.65;4.00;;;11.30;99.90;;;;;;5062535;28;20082;-79
2022/05/03 09:05:22;;;;;;;21.35;3.75;;;11.40;99.90;;;;;;5061993;28;20392;-85
2022/05/03 09:07:56;;;;;;;20.52;3.10;;;11.40;99.90;;;;;;5050583;28;20044;-74
2022/05/03 09:10:28;;;;;;;20.05;2.75;;;11.60;99.90;;;;;;5038320;28;20052;-74
2022/05/03 09:13:18;;;;;;;14.75;2.90;;;11.50;99.90;;;;;;5051370;28;20072;-75
2022/05/03 09:15:46;;;;;;;17.88;3.30;;;11.60;99.90;;;;;;5062368;28;20148;-74
2022/05/03 09:18:23;;;;;;;20.70;3.38;;;11.60;99.90;;;;;;5050204;28;20089;-75
2022/05/03 09:23:49;;;;;;;17.90;3.30;;;11.70;99.90;;;;;;5050892;28;20044;-74
2022/05/03 09:26:31;;;;;;;11.25;2.88;;;11.70;99.90;;;;;;5052946;28;20098;-74
2022/05/03 09:29:11;;;;;;;12.18;3.13;;;11.70;99.90;;;;;;5063200;28;20050;-74
2022/05/03 09:31:42;;;;;;;16.55;3.05;;;11.70;99.90;;;;;;5062296;28;20040;-73
2022/05/03 09:34:18;;;;;;;;;;;11.80;99.90;;;;;;5050496;28;20052;-73
2022/05/03 09:36:45;;;;;;;21.85;2.65;;;11.80;99.90;;;;;;5066220;28;20414;-74
2022/05/03 09:39:32;;;;;;;14.35;2.83;;;11.90;99.90;;;;;;5061452;28;20153;-73
2022/05/03 09:42:14;;;;;;;13.93;2.90;;;12.00;99.90;;;;;;5058685;28;20060;-74
2022/05/03 09:45:00;;;;;;;12.65;2.35;;;12.10;99.90;;;;;;5064023;28;20041;-74
2022/05/03 09:47:28;;;;;;;11.15;2.92;;;12.20;99.90;;;;;;5047092;28;20056;-74
2022/05/03 09:49:54;;;;;;;8.98;2.30;;;12.30;99.90;;;;;;5068145;28;20116;-75
2022/05/03 09:52:29;;;;;;;12.30;2.75;;;12.40;99.90;;;;;;5054624;28;20123;-73
2022/05/03 09:55:00;;;;;;;10.55;2.42;;;12.40;99.90;;;;;;5078901;28;20040;-74
2022/05/03 09:57:27;;;;;;;7.85;2.08;;;12.50;99.90;;;;;;5075252;28;20127;-75
2022/05/03 09:59:54;;;;;;;8.00;2.20;;;12.60;99.90;;;;;;5067498;28;20042;-74
2022/05/03 10:02:25;;;;;;;14.35;2.50;;;12.70;99.90;;;;;;5078371;28;20682;-74
2022/05/03 10:04:52;;;;;;;10.23;2.25;;;12.70;99.90;;;;;;5073612;28;20097;-74
2022/05/03 10:07:20;;;;;;;10.13;2.33;;;12.70;99.90;;;;;;5076359;28;20037;-75
2022/05/03 10:09:46;;;;;;;10.45;2.20;;;12.80;99.90;;;;;;5075321;28;20415;-74
2022/05/03 10:12:14;;;;;;;4.88;1.55;;;12.80;99.90;;;;;;5042793;28;20626;-73
2022/05/03 10:14:41;;;;;;;8.73;2.17;;;12.80;99.90;;;;;;5049407;28;20476;-73
2022/05/03 10:20:39;;;;;;;13.55;2.70;;;12.90;99.90;;;;;;5034546;28;20044;-73
2022/05/03 10:23:21;;;;;;;10.07;1.90;;;12.90;99.90;;;;;;5054252;28;20063;-73
2022/05/03 10:25:47;;;;;;;8.88;2.10;;;13.00;99.90;;;;;;5052948;28;20056;-73
2022/05/03 10:28:13;;;;;;;7.03;1.80;;;13.00;99.90;;;;;;5066502;28;20051;-74
2022/05/03 10:30:59;;;;;;;12.25;2.35;;;13.10;99.90;;;;;;5059375;28;20075;-74
2022/05/03 10:33:24;;;;;;;7.93;1.90;;;13.10;99.60;;;;;;5058898;28;20411;-74
2022/05/03 10:35:51;;;;;;;13.95;2.25;;;13.10;99.60;;;;;;5069425;28;20063;-74
2022/05/03 10:38:43;;;;;;;7.22;2.28;;;13.20;99.20;;;;;;5056316;28;20430;-74
2022/05/03 10:41:10;;;;;;;9.88;1.80;;;13.20;99.10;;;;;;5055681;28;20043;-74
2022/05/03 10:43:38;;;;;;;7.80;1.98;;;13.20;98.90;;;;;;5064138;28;20056;-74
2022/05/03 10:46:18;;;;;;;4.85;1.27;;;13.20;98.60;;;;;;5072371;28;20429;-73
2022/05/03 10:49:02;;;;;;;5.75;1.80;;;13.30;98.10;;;;;;5063397;28;20059;-72
2022/05/03 10:51:28;;;;;;;12.13;2.15;;;13.20;97.50;;;;;;5069142;28;20059;-73
2022/05/03 10:53:59;;;;;;;5.82;1.85;;;13.20;97.10;;;;;;5063686;28;20199;-73
2022/05/03 10:56:24;;;;;;;6.32;1.70;;;13.20;97.00;;;;;;5067255;28;20114;-75
2022/05/03 10:59:07;;;;;;;5.82;1.70;;;13.20;96.80;;;;;;5037372;28;20048;-76
2022/05/03 11:01:53;;;;;;;6.07;1.52;;;13.20;96.70;;;;;;5064615;28;20055;-74
2022/05/03 11:05:03;;;;;;;8.82;1.55;;;13.20;96.90;;;;;;5043377;28;20040;-73
2022/05/03 11:07:30;;;;;;;8.48;1.77;;;13.30;97.10;;;;;;5072948;28;20051;-74
2022/05/03 11:10:34;;;;;;;9.18;1.75;;;13.40;96.70;;;;;;5069110;28;20040;-74
2022/05/03 11:13:02;;;;;;;7.25;1.73;;;13.40;95.80;;;;;;5052177;28;20045;-74
2022/05/03 11:15:28;;;;;;;7.45;1.73;;;13.30;96.20;;;;;;5057308;28;20037;-74
2022/05/03 11:17:54;;;;;;;11.35;1.80;;;13.30;95.70;;;;;;5056153;28;20510;-72
2022/05/03 11:20:22;;;;;;;9.85;1.80;;;13.30;95.40;;;;;;5051471;28;20383;-72
2022/05/03 11:22:50;;;;;;;10.82;1.83;;;13.60;95.50;;;;;;5057152;28;20037;-72
2022/05/03 11:25:16;;;;;;;11.30;1.98;;;13.20;95.10;;;;;;5068099;28;20432;-72
2022/05/03 11:27:44;;;;;;;11.07;2.17;;;13.20;95.20;;;;;;5062379;28;20091;-72
2022/05/03 11:30:11;;;;;;;11.52;1.90;;;13.30;95.70;;;;;;5035927;28;20059;-73
2022/05/03 11:32:39;;;;;;;9.63;1.38;;;13.40;95.20;;;;;;5065779;28;20048;-73
2022/05/03 11:35:10;;;;;;;11.45;2.15;;;13.50;95.00;;;;;;5045689;28;20102;-73
2022/05/03 11:37:43;;;;;;;11.25;1.95;;;13.60;94.80;;;;;;5055409;28;20045;-73
2022/05/03 11:40:09;;;;;;;7.43;1.58;;;13.60;94.70;;;;;;5043016;28;20048;-72
2022/05/03 11:42:41;;;;;;;6.25;1.48;;;13.80;94.50;;;;;;5050685;28;20060;-74
2022/05/03 11:45:08;;;;;;;7.88;1.70;;;13.90;94.00;;;;;;5033097;28;20044;-73
2022/05/03 11:47:36;;;;;;;9.50;2.17;;;13.90;93.80;;;;;;5062869;28;20044;-72
2022/05/03 11:50:04;;;;;;;12.98;1.85;;;13.90;93.50;;;;;;5050018;28;20179;-73
2022/05/03 11:57:59;;;;;;;36.50;3.78;;;13.90;92.90;;;;;;5051301;28;20124;-73
2022/05/03 12:00:25;;;;;;;9.10;1.90;;;14.10;92.90;;;;;;5039086;28;20569;-72
2022/05/03 12:02:53;;;;;;;8.68;1.75;;;14.10;92.70;;;;;;5035667;28;20056;-72
2022/05/03 12:05:20;;;;;;;22.58;2.30;;;14.20;92.40;;;;;;5037912;28;20087;-72
2022/05/03 12:07:49;;;;;;;10.50;2.55;;;14.30;92.30;;;;;;5069110;28;20598;-72
2022/05/03 12:10:30;;;;;;;7.18;1.45;;;14.30;91.50;;;;;;5056836;28;20048;-72
2022/05/03 12:13:14;;;;;;;7.60;1.52;;;14.20;91.30;;;;;;5048046;28;20041;-72
2022/05/03 12:15:49;;;;;;;6.40;1.60;;;14.30;90.80;;;;;;5056244;28;20044;-72
2022/05/03 12:18:20;;;;;;;13.90;2.15;;;14.10;90.60;;;;;;5058385;28;20159;-73
2022/05/03 12:20:57;;;;;;;6.93;1.95;;;14.10;90.10;;;;;;5052412;28;20048;-73
2022/05/03 12:23:33;;;;;;;21.33;2.20;;;13.90;90.40;;;;;;5054959;28;20040;-72
2022/05/03 12:26:00;;;;;;;14.82;2.30;;;14.00;90.90;;;;;;5063629;28;20044;-72
2022/05/03 12:28:36;;;;;;;10.65;2.30;;;14.00;91.60;;;;;;5053120;28;20556;-72
2022/05/03 12:31:04;;;;;;;14.45;2.58;;;14.20;91.10;;;;;;5034397;28;20071;-72
2022/05/03 12:33:32;;;;;;;7.90;1.65;;;14.30;90.90;;;;;;5037169;28;20045;-72
2022/05/03 12:35:59;;;;;;;15.95;2.53;;;14.30;90.70;;;;;;5052570;28;20055;-73
2022/05/03 12:38:26;;;;;;;11.73;2.85;;;14.30;90.50;;;;;;5049229;28;20036;-73
2022/05/03 12:40:59;;;;;;;10.23;2.08;;;14.40;90.60;;;;;;5052418;28;20045;-72
2022/05/03 12:43:27;;;;;;;11.27;2.35;;;14.50;91.20;;;;;;5042417;28;20459;-72
2022/05/03 12:45:56;;;;;;;12.95;2.30;;;14.80;91.10;;;;;;5062535;28;20041;-73
2022/05/03 12:48:25;;;;;;;7.47;1.83;;;15.00;90.60;;;;;;5065555;28;20125;-72
2022/05/03 12:50:55;;;;;;;14.82;2.53;;;15.20;90.10;;;;;;5039023;28;20068;-73
2022/05/03 12:53:28;;;;;;;10.20;1.98;;;15.30;89.40;;;;;;5047445;28;20052;-72
2022/05/03 12:55:55;;;;;;;8.50;1.92;;;15.40;89.00;;;;;;5063816;28;20594;-72
2022/05/03 12:58:25;;;;;;;10.00;2.08;;;15.50;88.00;;;;;;5028202;28;20049;-72
2022/05/03 13:00:59;;;;;;;10.30;2.50;;;15.50;87.30;;;;;;5043144;28;20504;-72
2022/05/03 13:03:25;;;;;;;9.05;1.75;;;15.60;86.00;;;;;;5034854;28;20049;-72
2022/05/03 13:05:54;;;;;;;10.60;2.00;;;15.50;84.50;;;;;;5057222;28;20052;-72
2022/05/03 13:08:19;;;;;;;11.60;2.00;;;15.40;84.30;;;;;;5052158;28;20150;-72
2022/05/03 13:10:45;;;;;;;11.05;1.73;;;15.60;84.80;;;;;;5047557;28;20063;-72
2022/05/03 13:13:12;;;;;;;15.57;2.78;;;15.30;83.90;;;;;;5031250;28;20044;-73
2022/05/03 13:15:38;;;;;;;8.32;1.70;;;15.20;84.50;;;;;;5037804;28;20041;-73
2022/05/03 13:18:05;;;;;;;14.00;2.25;;;15.40;85.00;;;;;;5042213;28;20481;-72
2022/05/03 13:20:31;;;;;;;13.18;1.98;;;15.40;84.20;;;;;;5057622;28;20357;-73
2022/05/03 13:22:58;;;;;;;5.75;1.90;;;15.40;83.40;;;;;;5066003;28;20048;-72
2022/05/03 13:25:23;;;;;;;13.88;2.35;;;15.50;83.70;;;;;;5041945;28;20484;-73
2022/05/03 13:27:49;;;;;;;9.50;1.98;;;15.60;83.20;;;;;;5049714;28;20147;-72
2022/05/03 13:30:16;;;;;;;7.38;1.95;;;15.70;82.90;;;;;;5034345;28;20048;-72
2022/05/03 13:32:42;;;;;;;13.10;2.15;;;16.00;82.80;;;;;;5052344;28;20063;-72